Time;durP1;ratioP1;P1;durP2;ratioP2;P2;SDS_P1;SDS_P2;PMS_P1;PMS_P2;Temp;Humidity;BMP_temperature;BMP_pressure;BME280_temperature;BME280_humidity;BME280_pressure;Samples;Min_cycle;Max_cycle;Signal;HPM_P1;HPM_P2
2022/01/19 00:00:54;;;;;;;12.13;5.72;;;;;;;-2.64;58.60;96068.41;5095922;28;20031;-78
2022/01/19 00:03:19;;;;;;;14.80;5.40;;;;;;;-2.62;58.77;96072.63;5095995;28;20028;-78
2022/01/19 00:05:45;;;;;;;10.70;5.22;;;;;;;-2.62;58.39;96066.66;5079011;28;20409;-78
2022/01/19 00:08:16;;;;;;;11.25;5.53;;;;;;;-2.70;58.55;96082.88;5095911;28;20020;-77
2022/01/19 00:10:41;;;;;;;12.20;5.15;;;;;;;-2.75;58.89;96092.25;5113013;28;20409;-78
2022/01/19 00:13:07;;;;;;;17.05;5.90;;;;;;;-2.84;58.82;96096.56;5130237;27;20019;-78
2022/01/19 00:15:32;;;;;;;11.13;5.95;;;;;;;-2.80;58.97;96088.06;5099325;27;20416;-78
2022/01/19 00:17:59;;;;;;;18.13;8.98;;;;;;;-2.77;58.71;96090.59;5133395;27;20054;-78
2022/01/19 00:20:25;;;;;;;16.40;7.30;;;;;;;-2.77;58.69;96083.78;5133298;27;20046;-78
2022/01/19 00:22:51;;;;;;;15.63;6.05;;;;;;;-2.85;58.62;96093.19;5133570;27;20023;-78
2022/01/19 00:25:17;;;;;;;12.88;6.28;;;;;;;-2.90;59.04;96079.69;5133370;27;20063;-77
2022/01/19 00:27:42;;;;;;;12.23;5.70;;;;;;;-2.84;59.02;96077.09;5133127;27;20125;-78
2022/01/19 00:30:08;;;;;;;13.70;6.20;;;;;;;-2.79;58.73;96085.50;5133235;27;20473;-78
2022/01/19 00:32:34;;;;;;;14.70;6.75;;;;;;;-2.84;59.11;96096.56;5133336;27;20033;-78
2022/01/19 00:34:59;;;;;;;14.23;6.40;;;;;;;-2.89;58.93;96090.72;5132913;27;20558;-78
2022/01/19 00:37:25;;;;;;;13.20;6.45;;;;;;;-2.96;59.36;96100.94;5132851;27;20106;-77
2022/01/19 00:39:50;;;;;;;16.73;8.98;;;;;;;-3.12;59.94;96107.03;5132953;27;20031;-78
2022/01/19 00:42:16;;;;;;;18.30;8.07;;;;;;;-3.03;59.26;96116.28;5132892;27;20039;-78
2022/01/19 00:44:41;;;;;;;16.02;7.35;;;;;;;-3.01;59.80;96115.41;5132843;27;20476;-78
2022/01/19 00:47:07;;;;;;;12.35;6.47;;;;;;;-3.05;59.63;96106.09;5098741;27;20027;-78
2022/01/19 00:49:32;;;;;;;15.93;8.63;;;;;;;-3.09;59.55;96111.22;5098541;27;20043;-78
2022/01/19 00:51:57;;;;;;;17.48;8.35;;;;;;;-3.06;59.41;96119.69;5132744;27;20408;-78
2022/01/19 00:54:23;;;;;;;12.65;6.70;;;;;;;-3.09;59.38;96129.88;5115309;27;20027;-78
2022/01/19 00:56:48;;;;;;;19.15;7.43;;;;;;;-3.06;59.52;96129.03;5132668;27;20027;-78
2022/01/19 00:59:14;;;;;;;18.50;7.28;;;;;;;-3.01;59.46;96124.72;5115306;27;20027;-78
2022/01/19 01:01:40;;;;;;;16.65;6.32;;;;;;;-2.98;60.07;96127.22;5132363;27;20027;-78
2022/01/19 01:04:05;;;;;;;15.30;6.00;;;;;;;-3.05;59.94;96131.53;5133579;27;20031;-78
2022/01/19 01:06:31;;;;;;;10.60;5.43;;;;;;;-3.06;59.86;96129.03;5132420;27;20035;-78
2022/01/19 01:08:56;;;;;;;13.40;5.53;;;;;;;-2.95;59.59;96137.41;5132285;27;20027;-78
2022/01/19 01:11:28;;;;;;;13.73;5.57;;;;;;;-2.92;59.17;96134.81;5113769;27;20024;-78
2022/01/19 01:16:36;;;;;;;11.38;6.53;;;;;;;-2.96;59.38;96135.69;5111695;28;20019;-78
2022/01/19 01:19:03;;;;;;;11.98;6.10;;;;;;;-3.00;59.55;96131.50;5112997;28;20035;-78
2022/01/19 01:21:28;;;;;;;13.73;6.30;;;;;;;-2.92;59.69;96135.66;5112606;28;20074;-78
2022/01/19 01:23:54;;;;;;;13.75;6.82;;;;;;;-2.92;59.65;96128.03;5111390;28;20024;-78
2022/01/19 01:26:19;;;;;;;13.75;6.65;;;;;;;-2.93;59.30;96128.03;5111436;28;20031;-78
2022/01/19 01:28:45;;;;;;;16.55;6.22;;;;;;;-2.91;59.33;96118.69;5111259;28;20027;-78
2022/01/19 01:31:10;;;;;;;12.90;6.25;;;;;;;-2.91;59.75;96108.53;5111266;28;20490;-78
2022/01/19 01:33:37;;;;;;;16.92;6.35;;;;;;;-2.98;59.89;96114.50;5111053;28;20023;-78
2022/01/19 01:36:02;;;;;;;15.98;6.72;;;;;;;-3.00;59.66;96113.72;5077456;28;20035;-77
2022/01/19 01:38:28;;;;;;;18.85;6.57;;;;;;;-3.05;60.31;96116.28;5094173;28;20405;-78
2022/01/19 01:40:53;;;;;;;13.48;7.07;;;;;;;-3.13;60.39;96100.25;5094023;28;20042;-78
2022/01/19 01:43:19;;;;;;;17.83;7.30;;;;;;;-3.06;59.97;96111.22;5094139;28;20269;-78
2022/01/19 01:45:48;;;;;;;16.52;6.55;;;;;;;-3.11;60.34;96118.03;5094154;28;20038;-78
2022/01/19 01:48:17;;;;;;;12.27;6.10;;;;;;;-3.18;60.35;96097.75;5094344;28;20035;-78
2022/01/19 01:53:27;;;;;;;21.13;8.60;;;;;;;-3.24;60.40;96092.72;5111411;28;20050;-78
2022/01/19 01:56:02;;;;;;;20.30;7.35;;;;;;;-3.31;60.49;96093.63;5110780;28;20027;-77
2022/01/19 01:58:29;;;;;;;22.27;7.10;;;;;;;-3.24;60.53;96090.16;5094542;28;20088;-78
2022/01/19 02:00:55;;;;;;;13.70;6.70;;;;;;;-3.22;60.74;96096.09;5110658;28;20050;-78
2022/01/19 02:03:21;;;;;;;20.88;6.82;;;;;;;-3.34;61.08;96090.25;5110690;28;20103;-78
2022/01/19 02:08:38;;;;;;;15.70;6.28;;;;;;;-3.31;60.61;96073.31;5096536;28;20181;-77
2022/01/19 02:11:33;;;;;;;13.30;6.63;;;;;;;-3.30;60.36;96067.34;5110846;28;20417;-78
2022/01/19 02:16:49;;;;;;;12.55;6.35;;;;;;;-3.28;60.68;96059.72;5110700;28;20107;-78
2022/01/19 02:22:01;;;;;;;12.93;5.53;;;;;;;-3.33;60.49;96046.22;5111968;28;20576;-78
2022/01/19 02:24:42;;;;;;;17.83;6.53;;;;;;;-3.47;60.08;96033.63;5110422;28;20055;-78
2022/01/19 02:30:11;;;;;;;17.05;7.18;;;;;;;-3.57;61.09;96043.00;5110485;28;20505;-78
2022/01/19 02:40:36;;;;;;;16.67;6.15;;;;;;;-3.58;60.75;96035.44;5110334;28;20046;-78
2022/01/19 02:50:38;;;;;;;10.98;5.82;;;;;;;-3.47;60.15;96051.41;5110114;28;20119;-78
2022/01/19 02:53:04;;;;;;;15.07;7.05;;;;;;;-3.46;59.67;96056.47;5076266;28;20027;-78
2022/01/19 02:55:31;;;;;;;19.83;6.90;;;;;;;-3.54;59.83;96052.31;5093271;28;20032;-78
2022/01/19 02:57:56;;;;;;;13.63;6.07;;;;;;;-3.56;60.43;96054.88;5076737;28;20493;-77
2022/01/19 03:08:44;;;;;;;15.68;7.07;;;;;;;-3.74;60.54;96060.09;5110075;28;20031;-78
2022/01/19 03:11:17;;;;;;;14.93;6.30;;;;;;;-3.85;61.23;96072.88;5111217;28;20028;-78
2022/01/19 03:13:43;;;;;;;14.55;6.85;;;;;;;-3.87;61.23;96054.28;5109873;28;20397;-78
2022/01/19 03:16:09;;;;;;;13.48;5.85;;;;;;;-3.74;61.15;96052.47;5092997;28;20031;-78
2022/01/19 03:18:34;;;;;;;14.05;6.20;;;;;;;-3.79;60.95;96046.59;5113736;28;20031;-78
2022/01/19 03:21:00;;;;;;;11.70;6.00;;;;;;;-3.74;61.06;96057.56;5115067;28;20027;-78
2022/01/19 03:23:25;;;;;;;11.07;5.20;;;;;;;-3.88;61.42;96034.81;5113767;28;20038;-78
2022/01/19 03:25:51;;;;;;;19.30;6.28;;;;;;;-3.79;61.00;96057.56;5113840;28;20080;-78
2022/01/19 03:28:17;;;;;;;21.65;6.68;;;;;;;-3.75;60.90;96054.19;5115018;28;20044;-78
2022/01/19 03:30:44;;;;;;;11.18;5.68;;;;;;;-3.66;60.62;96055.81;5096752;28;20028;-78
2022/01/19 03:33:09;;;;;;;14.55;5.88;;;;;;;-3.70;60.57;96049.91;5079705;28;20024;-77
2022/01/19 03:35:35;;;;;;;13.52;5.88;;;;;;;-3.71;60.71;96047.38;5079637;28;20039;-78
2022/01/19 03:38:00;;;;;;;12.88;5.88;;;;;;;-3.82;60.71;96049.97;5096658;28;20054;-78
2022/01/19 03:40:26;;;;;;;16.73;6.90;;;;;;;-3.69;60.35;96053.28;5079589;28;20030;-78
2022/01/19 03:42:51;;;;;;;14.50;6.63;;;;;;;-3.65;60.76;96054.94;5096432;28;20031;-78
2022/01/19 03:45:17;;;;;;;11.55;6.13;;;;;;;-3.60;60.60;96059.13;5079632;28;20038;-78
2022/01/19 03:47:47;;;;;;;11.68;6.35;;;;;;;-3.58;60.37;96071.00;5096496;28;20409;-78
2022/01/19 03:50:12;;;;;;;14.88;5.93;;;;;;;-3.64;60.41;96066.81;5113197;28;20050;-78
2022/01/19 03:52:38;;;;;;;12.55;5.75;;;;;;;-3.58;60.53;96065.91;5096350;28;20040;-78
2022/01/19 03:55:04;;;;;;;13.65;6.18;;;;;;;-3.57;60.60;96060.81;5096363;28;20035;-78
2022/01/19 03:57:30;;;;;;;15.85;6.82;;;;;;;-3.50;60.68;96065.00;5079386;28;20028;-78
2022/01/19 03:59:55;;;;;;;15.93;6.20;;;;;;;-3.61;60.90;96065.06;5114655;28;20034;-78
2022/01/19 04:02:21;;;;;;;15.27;6.72;;;;;;;-3.52;60.06;96069.22;5096788;28;20051;-79
2022/01/19 04:04:55;;;;;;;11.55;6.05;;;;;;;-3.45;59.65;96083.59;5096004;28;20039;-79
2022/01/19 04:07:21;;;;;;;14.85;6.30;;;;;;;-3.57;60.30;96057.41;5114305;28;20532;-79
2022/01/19 04:09:47;;;;;;;15.90;7.18;;;;;;;-3.37;59.56;96068.28;5113002;28;20511;-76
2022/01/19 04:12:17;;;;;;;15.23;6.65;;;;;;;-3.33;59.25;96082.63;5104912;27;20088;-79
2022/01/19 04:14:43;;;;;;;14.27;5.30;;;;;;;-3.35;59.41;96089.41;5119699;27;20037;-79
2022/01/19 04:17:15;;;;;;;12.65;6.80;;;;;;;-3.37;59.21;96086.06;5127600;27;20027;-77
2022/01/19 04:19:45;;;;;;;11.10;6.30;;;;;;;-3.29;59.06;96098.69;5116378;27;20038;-77
2022/01/19 04:22:13;;;;;;;14.45;6.20;;;;;;;-3.31;59.35;96092.81;5132082;27;20074;-76
2022/01/19 04:24:39;;;;;;;24.15;10.75;;;;;;;-3.29;59.41;96086.81;5132994;27;20055;-77
2022/01/19 04:27:49;;;;;;;15.90;7.22;;;;;;;-3.29;59.13;96086.81;5133342;27;20031;-76
2022/01/19 04:30:00;;;;;;;20.15;7.88;;;;;;;-3.34;59.01;96093.66;5122147;27;20039;-77
2022/01/19 04:34:57;;;;;;;15.48;6.85;;;;;;;-3.36;59.23;96097.91;5133130;27;20039;-79
2022/01/19 05:07:24;;;;;;;18.48;7.60;;;;;;;-3.20;58.27;96118.97;5133937;27;20492;-77
2022/01/19 05:15:19;;;;;;;45.47;23.20;;;;;;;-3.06;58.19;96129.88;5096059;28;20049;-76
2022/01/19 05:17:44;;;;;;;26.92;14.13;;;;;;;-3.09;57.65;96127.34;5094609;28;20493;-76
2022/01/19 05:20:11;;;;;;;15.68;7.57;;;;;;;-3.13;58.00;96117.22;5114579;27;20072;-77
2022/01/19 05:22:36;;;;;;;14.15;6.72;;;;;;;-3.07;57.48;96122.22;5115181;27;20035;-76
2022/01/19 05:25:02;;;;;;;13.88;6.88;;;;;;;-3.15;58.11;96125.69;5131920;27;20019;-77
2022/01/19 05:27:28;;;;;;;20.63;7.60;;;;;;;-3.19;58.05;96131.66;5114750;27;20023;-77
2022/01/19 05:29:53;;;;;;;17.40;7.95;;;;;;;-3.16;57.80;96144.34;5111287;28;20028;-77
2022/01/19 05:32:18;;;;;;;19.65;8.05;;;;;;;-3.24;58.48;96146.09;5111313;28;20028;-77
2022/01/19 05:34:44;;;;;;;14.35;6.60;;;;;;;-3.25;58.76;96148.66;5111312;28;20038;-77
2022/01/19 05:37:09;;;;;;;14.88;6.28;;;;;;;-3.30;58.92;96146.16;5114465;27;20071;-77
2022/01/19 05:39:35;;;;;;;21.83;7.88;;;;;;;-3.28;58.89;96163.94;5114406;27;20027;-77
2022/01/19 05:42:00;;;;;;;23.42;8.73;;;;;;;-3.24;59.04;96163.03;5119460;27;20087;-77
2022/01/19 05:44:26;;;;;;;22.17;8.73;;;;;;;-3.20;58.98;96169.81;5126291;27;20027;-77
2022/01/19 05:46:51;;;;;;;18.23;8.45;;;;;;;-3.19;58.63;96167.25;5122533;27;20035;-77
2022/01/19 05:49:17;;;;;;;17.77;9.85;;;;;;;-3.15;58.44;96168.91;5100278;27;20421;-77
2022/01/19 05:51:42;;;;;;;14.35;7.35;;;;;;;-3.30;58.95;96166.47;5107831;27;20031;-77
2022/01/19 05:54:07;;;;;;;16.17;7.00;;;;;;;-3.24;59.54;96174.06;5125902;27;20031;-77
2022/01/19 05:56:33;;;;;;;13.38;7.30;;;;;;;-3.22;59.60;96177.44;5101179;28;20050;-77
2022/01/19 05:58:58;;;;;;;18.13;7.25;;;;;;;-3.33;60.14;96176.66;5088155;28;20089;-77
2022/01/19 06:01:24;;;;;;;18.23;7.38;;;;;;;-3.29;60.00;96191.03;5112320;27;20035;-77
2022/01/19 06:03:51;;;;;;;20.48;8.38;;;;;;;-3.25;59.81;96185.09;5126479;27;20059;-77
2022/01/19 06:06:17;;;;;;;18.58;7.93;;;;;;;-3.35;60.53;96170.75;5130671;27;20066;-76
2022/01/19 06:08:44;;;;;;;17.40;7.93;;;;;;;-3.36;61.51;96176.69;5114288;27;20059;-77
2022/01/19 06:11:10;;;;;;;21.17;7.53;;;;;;;-3.37;61.04;96162.31;5092349;28;20063;-76
2022/01/19 06:13:35;;;;;;;15.73;7.65;;;;;;;-3.25;61.13;96177.47;5094603;27;20023;-76
2022/01/19 06:16:01;;;;;;;15.43;6.82;;;;;;;-3.24;61.59;96180.84;5091077;28;20027;-77
2022/01/19 06:18:26;;;;;;;25.02;8.68;;;;;;;-3.24;61.53;96184.22;5095563;27;20028;-78
2022/01/19 06:20:52;;;;;;;20.88;9.70;;;;;;;-3.21;61.48;96178.28;5109871;27;20042;-80
2022/01/19 06:23:17;;;;;;;50.30;21.25;;;;;;;-3.20;61.71;96196.06;5112749;27;20028;-77
2022/01/19 06:25:43;;;;;;;73.55;23.02;;;;;;;-3.18;61.35;96194.34;5114315;27;20039;-77
2022/01/19 06:28:08;;;;;;;45.80;17.65;;;;;;;-3.13;61.21;96193.47;5108788;27;20080;-77
2022/01/19 06:30:34;;;;;;;69.28;23.17;;;;;;;-3.14;61.56;96195.19;5120222;27;20031;-77
2022/01/19 06:32:59;;;;;;;224.65;64.60;;;;;;;-3.18;62.12;96201.13;5113663;27;20488;-77
2022/01/19 06:35:25;;;;;;;102.80;37.95;;;;;;;-3.07;61.19;96206.97;5127920;27;20024;-77
2022/01/19 06:37:50;;;;;;;175.30;62.28;;;;;;;-3.03;60.98;96206.13;5112508;27;20425;-77
2022/01/19 06:40:16;;;;;;;98.93;37.88;;;;;;;-3.01;61.45;96203.53;5110347;28;20039;-76
2022/01/19 06:42:42;;;;;;;40.28;16.95;;;;;;;-3.03;61.81;96208.66;5076404;28;20028;-76
2022/01/19 06:45:08;;;;;;;39.92;18.38;;;;;;;-3.13;61.99;96204.47;5110335;28;20035;-77
2022/01/19 06:47:34;;;;;;;28.65;13.80;;;;;;;-3.04;61.86;96201.88;5110062;28;20089;-76
2022/01/19 06:49:59;;;;;;;68.57;35.25;;;;;;;-3.12;62.28;96205.31;5110109;28;20047;-77
2022/01/19 06:52:24;;;;;;;21.38;9.90;;;;;;;-3.05;61.91;96206.97;5111105;28;20027;-77
2022/01/19 06:54:50;;;;;;;28.00;13.30;;;;;;;-3.01;62.33;96204.41;5110174;28;20092;-77
2022/01/19 06:57:15;;;;;;;49.25;24.17;;;;;;;-2.93;61.77;96200.06;5110094;28;20027;-77
2022/01/19 06:59:41;;;;;;;48.00;21.73;;;;;;;-2.84;61.47;96199.19;5110133;28;20039;-77
2022/01/19 07:02:06;;;;;;;37.58;18.85;;;;;;;-2.82;61.34;96202.53;5110029;28;20581;-76
2022/01/19 07:04:32;;;;;;;59.13;26.42;;;;;;;-2.70;61.13;96199.91;5111476;28;20055;-76
2022/01/19 07:06:57;;;;;;;33.28;19.60;;;;;;;-2.72;61.12;96188.88;5111134;28;20031;-77
2022/01/19 07:09:22;;;;;;;105.03;46.35;;;;;;;-2.71;61.54;96200.75;5111337;28;20393;-77
2022/01/19 07:11:48;;;;;;;57.70;27.85;;;;;;;-2.79;61.72;96182.16;5076046;28;20070;-77
2022/01/19 07:14:14;;;;;;;46.47;19.77;;;;;;;-2.81;61.68;96183.91;5092849;28;20024;-76
2022/01/19 07:16:40;;;;;;;28.45;11.73;;;;;;;-2.73;61.74;96176.16;5109744;28;20028;-76
2022/01/19 07:19:05;;;;;;;153.45;54.15;;;;;;;-2.60;61.10;96176.91;5076084;28;20465;-77
2022/01/19 07:21:31;;;;;;;122.53;47.83;;;;;;;-2.58;61.58;96175.19;5092879;28;20556;-75
2022/01/19 07:23:56;;;;;;;45.83;21.33;;;;;;;-2.50;60.86;96173.41;5111130;28;20023;-77
2022/01/19 07:26:22;;;;;;;90.25;33.85;;;;;;;-2.61;61.31;96185.41;5092859;28;20489;-77
2022/01/19 07:28:47;;;;;;;51.05;21.40;;;;;;;-2.47;60.72;96173.38;5111066;28;20038;-77
2022/01/19 07:31:13;;;;;;;22.10;12.18;;;;;;;-2.42;60.64;96170.78;5109903;28;20023;-77
2022/01/19 07:33:38;;;;;;;49.60;19.48;;;;;;;-2.36;60.62;96179.22;5109614;28;20176;-77
2022/01/19 07:36:04;;;;;;;115.30;39.88;;;;;;;-2.33;60.45;96181.72;5109700;28;20419;-77
2022/01/19 07:38:29;;;;;;;98.13;37.15;;;;;;;-2.26;60.10;96177.38;5110813;28;20427;-77
2022/01/19 07:40:55;;;;;;;38.50;20.30;;;;;;;-2.22;59.99;96173.97;5075672;28;20032;-76
2022/01/19 07:43:20;;;;;;;43.55;23.77;;;;;;;-2.21;60.48;96185.00;5092682;28;20024;-77
2022/01/19 07:45:46;;;;;;;88.80;28.45;;;;;;;-1.93;58.95;96178.69;5092714;28;20036;-77
2022/01/19 07:48:11;;;;;;;83.28;30.95;;;;;;;-1.75;58.78;96174.25;5109539;28;20020;-77
2022/01/19 07:50:37;;;;;;;62.47;27.38;;;;;;;-1.26;57.85;96173.56;5092533;28;20044;-77
2022/01/19 07:53:03;;;;;;;68.10;32.47;;;;;;;-1.20;57.06;96153.91;5092680;28;20023;-77
2022/01/19 07:55:29;;;;;;;59.08;28.50;;;;;;;-0.86;56.08;96167.81;5075500;28;20413;-77
2022/01/19 07:57:54;;;;;;;69.50;25.70;;;;;;;-0.63;55.07;96175.09;5092612;28;20436;-77
2022/01/19 08:00:20;;;;;;;181.27;58.30;;;;;;;-0.52;54.55;96173.19;5092623;28;20035;-77
2022/01/19 08:02:45;;;;;;;50.78;22.20;;;;;;;-0.41;54.95;96175.56;5075585;28;20036;-77
2022/01/19 08:05:11;;;;;;;37.20;17.13;;;;;;;-0.36;53.99;96173.75;5112750;28;20443;-77
2022/01/19 08:07:36;;;;;;;40.22;20.83;;;;;;;-0.35;53.73;96157.56;5113035;28;20394;-77
2022/01/19 08:10:03;;;;;;;41.75;20.35;;;;;;;-0.21;54.27;96173.47;5112969;28;20050;-77
2022/01/19 08:12:29;;;;;;;41.05;23.70;;;;;;;-0.16;53.76;96170.84;5096049;28;20088;-77
2022/01/19 08:14:54;;;;;;;20.60;11.85;;;;;;;-0.11;53.42;96177.53;5079145;28;20035;-77
2022/01/19 08:17:20;;;;;;;31.23;19.30;;;;;;;-0.11;53.24;96169.88;5113170;28;20032;-77
2022/01/19 08:19:47;;;;;;;37.22;15.43;;;;;;;-0.10;53.06;96179.22;5078988;28;20096;-77
2022/01/19 08:22:13;;;;;;;37.92;16.35;;;;;;;-0.19;52.67;96171.72;5096137;28;20131;-77
2022/01/19 08:24:38;;;;;;;39.67;22.90;;;;;;;-0.16;53.08;96171.66;5095662;28;20024;-77
2022/01/19 08:27:04;;;;;;;29.73;17.00;;;;;;;-0.13;53.56;96181.81;5112792;28;20028;-77
2022/01/19 08:29:29;;;;;;;26.27;14.20;;;;;;;-0.04;53.09;96179.09;5112651;28;20028;-77
2022/01/19 08:31:55;;;;;;;34.22;18.20;;;;;;;0.15;53.15;96178.72;5113927;28;20054;-78
2022/01/19 08:34:21;;;;;;;21.10;11.25;;;;;;;-0.01;52.58;96179.03;5095512;28;20019;-76
2022/01/19 08:36:47;;;;;;;22.20;11.15;;;;;;;0.14;52.62;96166.81;5113704;28;20594;-76
2022/01/19 08:39:12;;;;;;;32.67;15.15;;;;;;;0.18;51.96;96166.72;5112424;28;20140;-76
2022/01/19 08:41:38;;;;;;;52.42;29.02;;;;;;;0.20;51.72;96166.69;5095179;28;20047;-76
2022/01/19 08:44:03;;;;;;;25.60;8.45;;;;;;;0.16;51.75;96167.63;5078447;28;20080;-76
2022/01/19 08:46:29;;;;;;;17.88;9.02;;;;;;;0.24;51.35;96154.69;5113552;27;20032;-76
2022/01/19 08:48:54;;;;;;;110.95;41.10;;;;;;;0.30;50.60;96147.72;5113524;28;20401;-76
2022/01/19 08:51:20;;;;;;;76.38;32.88;;;;;;;0.36;51.00;96150.16;5113462;27;20378;-77
2022/01/19 08:53:45;;;;;;;74.78;37.95;;;;;;;0.44;50.87;96157.66;5113434;28;20024;-76
2022/01/19 08:56:11;;;;;;;65.05;36.17;;;;;;;0.57;50.35;96158.22;5078216;28;20023;-76
2022/01/19 08:58:36;;;;;;;38.00;17.48;;;;;;;0.62;50.62;96152.13;5111962;28;20023;-76
2022/01/19 09:01:02;;;;;;;17.63;9.90;;;;;;;0.70;49.95;96159.66;5112217;28;20042;-77
2022/01/19 09:03:28;;;;;;;34.75;19.40;;;;;;;0.73;49.19;96151.06;5111883;28;20031;-76
2022/01/19 09:05:53;;;;;;;28.40;13.18;;;;;;;0.89;49.30;96153.22;5094905;28;20547;-76
2022/01/19 09:08:19;;;;;;;28.42;16.25;;;;;;;0.84;48.58;96157.59;5094974;28;20019;-77
2022/01/19 09:10:47;;;;;;;31.85;13.75;;;;;;;0.91;48.06;96149.78;5113112;28;20480;-77
2022/01/19 09:13:12;;;;;;;72.50;32.75;;;;;;;0.99;48.44;96146.16;5111796;28;20016;-76
2022/01/19 09:15:38;;;;;;;40.88;17.67;;;;;;;1.01;47.87;96138.47;5112847;28;20477;-76
2022/01/19 09:18:03;;;;;;;31.38;13.77;;;;;;;1.11;47.35;96142.44;5094945;28;20058;-76
2022/01/19 09:20:29;;;;;;;20.48;11.43;;;;;;;0.93;48.42;96115.59;5094616;28;20036;-77
2022/01/19 09:22:54;;;;;;;18.48;9.68;;;;;;;1.05;47.44;96119.56;5094616;28;20031;-76
2022/01/19 09:25:20;;;;;;;20.60;8.93;;;;;;;1.08;46.88;96134.84;5111778;28;20448;-76
2022/01/19 09:27:45;;;;;;;25.83;13.50;;;;;;;1.18;47.46;96115.00;5077652;28;20035;-77
2022/01/19 09:30:14;;;;;;;25.10;11.35;;;;;;;1.29;47.79;96121.53;5111636;28;20554;-78
2022/01/19 09:32:45;;;;;;;23.50;10.05;;;;;;;1.32;47.23;96111.19;5111423;28;20405;-78
2022/01/19 09:35:10;;;;;;;52.53;25.43;;;;;;;1.41;46.94;96116.97;5078663;28;20059;-79
2022/01/19 09:37:37;;;;;;;57.70;29.85;;;;;;;1.40;46.36;96102.50;5112546;28;20047;-78
2022/01/19 09:40:04;;;;;;;74.53;37.67;;;;;;;1.52;46.07;96109.84;5077269;28;20088;-79
2022/01/19 09:42:30;;;;;;;49.13;25.92;;;;;;;1.56;45.70;96106.28;5094176;28;20562;-79
2022/01/19 09:44:55;;;;;;;23.45;12.60;;;;;;;1.53;46.58;96096.13;5094314;28;20036;-78
2022/01/19 09:47:20;;;;;;;21.42;9.77;;;;;;;1.61;46.24;96103.63;5112511;28;20504;-78
2022/01/19 09:49:46;;;;;;;29.30;11.50;;;;;;;1.52;46.58;96084.22;5110881;28;20421;-79
2022/01/19 09:52:11;;;;;;;19.38;8.43;;;;;;;1.52;45.92;96087.63;5111195;28;20058;-79
2022/01/19 09:54:37;;;;;;;40.65;21.42;;;;;;;1.61;46.55;96088.25;5093936;28;20413;-79
2022/01/19 09:57:03;;;;;;;26.80;10.80;;;;;;;1.61;45.89;96086.53;5077242;28;20028;-78
2022/01/19 09:59:28;;;;;;;24.33;11.75;;;;;;;1.67;45.42;96083.81;5112354;28;20024;-79
2022/01/19 10:02:04;;;;;;;18.35;8.68;;;;;;;1.67;44.93;96081.25;5110836;28;20467;-79
2022/01/19 10:04:35;;;;;;;23.25;11.15;;;;;;;1.73;45.43;96088.75;5094923;28;20507;-78
2022/01/19 10:07:22;;;;;;;28.50;15.20;;;;;;;1.83;44.92;96088.50;5094094;28;20476;-78
2022/01/19 10:09:58;;;;;;;28.42;15.35;;;;;;;1.79;45.00;96080.06;5110601;28;20031;-78
2022/01/19 10:18:06;;;;;;;20.23;11.40;;;;;;;1.99;43.83;96075.19;5096375;28;20460;-79
2022/01/19 10:20:32;;;;;;;28.67;16.88;;;;;;;2.01;44.86;96070.03;5112189;28;20118;-79
2022/01/19 10:22:57;;;;;;;27.77;12.93;;;;;;;1.93;45.80;96061.72;5111792;28;20035;-79
2022/01/19 10:25:23;;;;;;;24.20;10.82;;;;;;;1.91;45.73;96066.88;5112001;28;20039;-78
2022/01/19 10:27:48;;;;;;;23.98;11.65;;;;;;;1.99;46.75;96058.97;5109816;28;20485;-78
2022/01/19 10:30:19;;;;;;;26.23;11.73;;;;;;;1.90;45.74;96065.22;5110461;28;20028;-78
2022/01/19 10:32:46;;;;;;;30.02;15.85;;;;;;;1.95;46.49;96065.06;5110543;28;20220;-78
2022/01/19 10:35:13;;;;;;;31.60;16.35;;;;;;;1.97;46.94;96065.88;5093618;28;20458;-79
2022/01/19 10:37:38;;;;;;;20.80;10.45;;;;;;;2.08;45.48;96063.81;5110238;28;20020;-78
2022/01/19 10:40:04;;;;;;;26.23;11.23;;;;;;;2.08;45.83;96043.31;5093088;28;20077;-78
2022/01/19 10:42:31;;;;;;;24.67;13.55;;;;;;;2.05;46.30;96045.97;5110192;28;20035;-78
2022/01/19 10:44:59;;;;;;;22.45;13.40;;;;;;;2.10;45.65;96045.84;5111728;28;20039;-78
2022/01/19 10:47:48;;;;;;;27.88;14.80;;;;;;;2.15;45.99;96039.69;5093422;28;20028;-78
2022/01/19 10:50:28;;;;;;;22.30;11.27;;;;;;;2.18;45.68;96039.59;5094547;28;20417;-78
2022/01/19 10:52:57;;;;;;;27.20;14.48;;;;;;;2.24;45.68;96024.03;5110273;28;20035;-78
2022/01/19 10:55:22;;;;;;;39.97;24.13;;;;;;;2.27;45.90;96014.56;5109991;28;20104;-79
2022/01/19 10:57:48;;;;;;;25.40;12.07;;;;;;;2.29;45.03;96005.94;5111268;28;20085;-79
2022/01/19 11:00:14;;;;;;;23.52;11.82;;;;;;;2.41;44.65;96007.28;5110182;28;20063;-78
2022/01/19 11:02:39;;;;;;;24.05;9.98;;;;;;;2.39;44.53;95999.63;5111206;28;20055;-78
2022/01/19 11:05:05;;;;;;;20.25;9.98;;;;;;;2.38;44.63;95990.25;5093289;28;20397;-79
2022/01/19 11:07:31;;;;;;;26.50;11.32;;;;;;;2.42;43.78;95993.56;5109969;28;20536;-78
2022/01/19 11:09:58;;;;;;;18.67;11.63;;;;;;;2.38;44.00;95995.38;5111480;28;20024;-78
2022/01/19 11:12:27;;;;;;;21.13;11.05;;;;;;;2.43;44.16;95985.00;5109990;28;20023;-77
2022/01/19 11:14:53;;;;;;;19.75;10.82;;;;;;;2.44;44.00;95984.09;5093625;28;20023;-78
2022/01/19 11:17:18;;;;;;;24.20;13.63;;;;;;;2.52;43.79;95979.56;5109903;28;20046;-78
2022/01/19 11:19:49;;;;;;;20.20;10.55;;;;;;;2.54;43.30;95977.78;5111317;28;20421;-79
2022/01/19 11:22:39;;;;;;;22.98;10.95;;;;;;;2.46;43.54;95961.81;5076383;28;20044;-78
2022/01/19 11:25:12;;;;;;;22.90;9.43;;;;;;;2.41;43.62;95959.38;5109858;28;20023;-79
2022/01/19 11:27:45;;;;;;;19.35;11.07;;;;;;;2.37;43.98;95957.81;5093247;28;20039;-78
2022/01/19 11:30:17;;;;;;;33.97;17.38;;;;;;;2.38;44.06;95956.91;5109585;28;20031;-78
2022/01/19 11:32:44;;;;;;;27.52;12.15;;;;;;;2.44;44.92;95955.88;5109775;28;20059;-78
2022/01/19 11:35:23;;;;;;;73.60;38.33;;;;;;;2.48;43.98;95960.03;5076050;28;20038;-79
2022/01/19 11:37:49;;;;;;;32.88;19.20;;;;;;;2.58;43.95;95958.81;5077691;28;20126;-78
2022/01/19 11:40:16;;;;;;;26.35;15.13;;;;;;;2.67;43.80;95967.94;5113150;28;20023;-78
2022/01/19 11:42:41;;;;;;;17.88;9.35;;;;;;;2.60;43.12;95963.91;5096599;28;20124;-78
2022/01/19 11:45:08;;;;;;;19.50;10.57;;;;;;;2.53;43.46;95958.13;5096516;28;20586;-79
2022/01/19 11:47:34;;;;;;;82.45;33.20;;;;;;;2.56;44.09;95962.31;5096346;28;20113;-77
2022/01/19 11:50:02;;;;;;;60.45;28.63;;;;;;;2.54;44.14;95957.25;5113269;28;20040;-78
2022/01/19 11:52:51;;;;;;;37.67;18.75;;;;;;;2.68;44.28;95957.63;5114537;27;20028;-79
2022/01/19 11:55:25;;;;;;;25.48;12.23;;;;;;;2.67;43.72;95945.69;5110931;28;20044;-78
2022/01/19 11:58:17;;;;;;;33.50;19.75;;;;;;;2.69;44.43;95946.47;5096541;28;20023;-78
2022/01/19 12:00:46;;;;;;;26.05;11.57;;;;;;;2.65;44.32;95939.78;5113164;28;20432;-79
2022/01/19 12:03:23;;;;;;;25.73;12.70;;;;;;;2.67;43.85;95937.16;5113115;28;20015;-79
2022/01/19 12:05:52;;;;;;;22.27;10.95;;;;;;;2.47;45.38;95938.66;5096374;28;20036;-78
2022/01/19 12:08:24;;;;;;;27.13;12.20;;;;;;;2.45;44.98;95935.31;5114268;28;20035;-79
2022/01/19 12:10:51;;;;;;;23.65;11.32;;;;;;;2.56;44.90;95934.09;5106180;28;20028;-79
2022/01/19 12:16:04;;;;;;;28.17;12.48;;;;;;;2.66;44.72;95927.78;5112856;28;20054;-79
2022/01/19 12:18:51;;;;;;;31.45;15.43;;;;;;;2.71;44.78;95914.81;5096689;28;20039;-79
2022/01/19 12:21:50;;;;;;;24.88;13.70;;;;;;;2.68;45.28;95915.75;5096333;28;20500;-79
2022/01/19 12:24:21;;;;;;;22.05;12.07;;;;;;;2.64;44.64;95903.91;5109034;28;20074;-79
2022/01/19 12:27:08;;;;;;;23.38;12.90;;;;;;;2.68;44.82;95906.31;5113892;28;20051;-79
2022/01/19 12:29:33;;;;;;;23.70;13.40;;;;;;;2.71;43.92;95907.94;5112827;28;20493;-78
2022/01/19 12:32:17;;;;;;;24.83;12.57;;;;;;;2.66;45.00;95902.97;5112611;28;20145;-79
2022/01/19 12:34:44;;;;;;;20.85;11.23;;;;;;;2.67;44.36;95899.50;5113921;28;20027;-78
2022/01/19 12:37:11;;;;;;;31.42;13.10;;;;;;;2.65;44.34;95895.31;5112803;28;20451;-78
2022/01/19 12:39:39;;;;;;;29.13;12.75;;;;;;;2.59;44.69;95890.38;5095369;28;20035;-79
2022/01/19 12:42:21;;;;;;;25.88;10.88;;;;;;;2.66;43.77;95897.81;5078551;28;20497;-79
2022/01/19 12:44:46;;;;;;;27.35;12.38;;;;;;;2.66;44.21;95890.13;5096444;28;20115;-79
2022/01/19 12:47:27;;;;;;;19.45;11.20;;;;;;;2.72;44.35;95883.13;5112438;28;20051;-79
2022/01/19 12:49:56;;;;;;;25.00;13.48;;;;;;;2.71;44.67;95881.44;5111613;28;20043;-78
2022/01/19 12:52:26;;;;;;;28.98;14.27;;;;;;;2.77;44.12;95863.25;5112221;28;20032;-79